createdAt,value
2023-02-28T00:01:27.442Z,97026.91
2023-02-28T00:03:54.616Z,97029.22
2023-02-28T00:06:21.890Z,97028.78
2023-02-28T00:08:49.207Z,97024.91
2023-02-28T00:11:16.929Z,97021.38
2023-02-28T00:13:49.640Z,97021.78
2023-02-28T00:16:23.070Z,97023.34
2023-02-28T00:18:51.038Z,97016.50
2023-02-28T00:21:19.645Z,97024.69
2023-02-28T00:23:46.599Z,97008.28
2023-02-28T00:26:13.732Z,97011.22
2023-02-28T00:28:40.563Z,97010.66
2023-02-28T00:31:07.456Z,97012.16
2023-02-28T00:33:34.285Z,97010.78
2023-02-28T00:36:10.844Z,97008.19
2023-02-28T00:38:39.118Z,97012.59
2023-02-28T00:41:06.832Z,97006.34
2023-02-28T00:43:35.660Z,97005.66
2023-02-28T00:46:03.733Z,97005.28
2023-02-28T00:48:30.645Z,97004.53
2023-02-28T00:50:57.507Z,96998.50
2023-02-28T00:53:24.359Z,96999.03
2023-02-28T00:55:51.766Z,96996.63
2023-02-28T00:58:19.069Z,96993.44
2023-02-28T01:00:49.858Z,96992.50
2023-02-28T01:03:21.823Z,96997.69
2023-02-28T01:05:48.686Z,96997.06
2023-02-28T01:08:16.058Z,96986.78
2023-02-28T01:10:43.758Z,96999.72
2023-02-28T01:13:10.759Z,96996.63
2023-02-28T01:15:46.953Z,96989.72
2023-02-28T01:18:13.849Z,96984.63
2023-02-28T01:20:40.836Z,96976.84
2023-02-28T01:23:07.743Z,96984.78
2023-02-28T01:25:36.918Z,96987.09
2023-02-28T01:28:04.057Z,96985.13
2023-02-28T01:30:31.520Z,96981.41
2023-02-28T01:32:58.899Z,96984.97
2023-02-28T01:35:25.966Z,96984.63
2023-02-28T01:37:52.864Z,96980.38
2023-02-28T01:40:19.737Z,96990.03
2023-02-28T01:42:46.536Z,96978.63
2023-02-28T01:45:26.741Z,96976.69
2023-02-28T01:47:58.028Z,96973.63
2023-02-28T01:50:29.791Z,96970.75
2023-02-28T01:53:02.808Z,96971.56
2023-02-28T01:55:30.994Z,96969.91
2023-02-28T01:58:01.617Z,96974.59
2023-02-28T02:00:30.137Z,96979.91
2023-02-28T02:03:04.939Z,96951.31
2023-02-28T02:05:32.364Z,96969.34
2023-02-28T02:08:14.068Z,96969.91
2023-02-28T02:10:46.007Z,96968.66
2023-02-28T02:13:47.960Z,96965.91
2023-02-28T02:16:39.553Z,96967.75
2023-02-28T02:19:37.611Z,96976.13
2023-02-28T02:23:01.487Z,96974.38
2023-02-28T02:26:19.861Z,96970.38
2023-02-28T02:28:57.833Z,96966.53
2023-02-28T02:31:53.002Z,96970.25
2023-02-28T02:34:41.409Z,96969.13
2023-02-28T02:37:22.886Z,96970.50
2023-02-28T02:40:12.379Z,96964.91
2023-02-28T02:42:59.977Z,96975.63
2023-02-28T02:45:41.047Z,96971.97
2023-02-28T02:48:14.063Z,96965.47
2023-02-28T02:50:47.919Z,96969.81
2023-02-28T02:53:19.353Z,96970.09
2023-02-28T02:55:53.973Z,96967.09
2023-02-28T02:58:27.443Z,96967.94
2023-02-28T03:01:00.249Z,96963.75
2023-02-28T03:03:31.747Z,96958.94
2023-02-28T03:06:03.865Z,96957.38
2023-02-28T03:08:37.462Z,96966.78
2023-02-28T03:11:16.467Z,96966.00
2023-02-28T03:14:28.026Z,96972.16
2023-02-28T03:17:17.656Z,96965.94
2023-02-28T03:20:11.872Z,96955.69
2023-02-28T03:22:58.842Z,96957.78
2023-02-28T03:25:48.736Z,96965.38
2023-02-28T03:28:38.620Z,96964.75
2023-02-28T03:31:17.731Z,96962.34
2023-02-28T03:34:15.055Z,96965.91
2023-02-28T03:36:50.741Z,96976.53
2023-02-28T03:39:30.060Z,96960.47
2023-02-28T03:42:03.013Z,96961.47
2023-02-28T03:44:47.577Z,96956.94
2023-02-28T03:47:23.504Z,96959.22
2023-02-28T03:50:11.614Z,96966.28
2023-02-28T03:52:50.004Z,96961.69
2023-02-28T03:55:18.719Z,96962.47
2023-02-28T03:58:03.054Z,96972.72
2023-02-28T04:00:39.243Z,96968.63
2023-02-28T04:03:06.560Z,96968.81
2023-02-28T04:05:34.158Z,96971.97
2023-02-28T04:08:09.122Z,96977.38
2023-02-28T04:10:36.026Z,96976.22
2023-02-28T04:13:02.823Z,96976.13
2023-02-28T04:15:29.684Z,96982.41
2023-02-28T04:17:56.486Z,96976.13
2023-02-28T04:20:23.326Z,96984.94
2023-02-28T04:22:50.148Z,96988.91
2023-02-28T04:25:17.039Z,96985.44
2023-02-28T04:27:45.470Z,96988.28
2023-02-28T04:30:13.124Z,96991.31
2023-02-28T04:32:39.984Z,96992.81
2023-02-28T04:35:07.519Z,96991.56
2023-02-28T04:37:35.728Z,96993.06
2023-02-28T04:40:03.773Z,96994.00
2023-02-28T04:42:36.419Z,96997.75
2023-02-28T04:45:04.852Z,97004.84
2023-02-28T04:47:31.819Z,97000.34
2023-02-28T04:49:59.192Z,97004.56
2023-02-28T04:52:26.029Z,96995.09
2023-02-28T04:54:52.885Z,97002.69
2023-02-28T04:57:19.662Z,96990.69
2023-02-28T04:59:46.591Z,96994.56
2023-02-28T05:02:22.237Z,96996.13
2023-02-28T05:04:49.150Z,96996.88
2023-02-28T05:07:16.091Z,96997.75
2023-02-28T05:09:42.920Z,97005.41
2023-02-28T05:12:10.737Z,97010.25
2023-02-28T05:14:37.637Z,97002.31
2023-02-28T05:17:04.469Z,97003.44
2023-02-28T05:19:31.260Z,97012.41
2023-02-28T05:21:58.281Z,97000.06
2023-02-28T05:24:25.195Z,97001.66
2023-02-28T05:26:54.326Z,97018.91
2023-02-28T05:29:21.677Z,97016.44
2023-02-28T05:31:48.737Z,97019.03
2023-02-28T05:34:17.069Z,97015.28
2023-02-28T05:36:44.139Z,97019.75
2023-02-28T05:39:13.519Z,97023.72
2023-02-28T05:41:44.186Z,97022.38
2023-02-28T05:44:11.786Z,97025.00
2023-02-28T05:46:39.526Z,97023.50
2023-02-28T05:49:06.490Z,97021.56
2023-02-28T05:51:35.376Z,97026.09
2023-02-28T05:54:03.307Z,97018.03
2023-02-28T05:56:30.789Z,97026.91
2023-02-28T05:58:58.065Z,97026.91
2023-02-28T06:01:36.955Z,97028.59
2023-02-28T06:04:06.606Z,97025.75
2023-02-28T06:06:36.858Z,97025.50
2023-02-28T06:09:06.128Z,97033.16
2023-02-28T06:11:33.695Z,97033.56
2023-02-28T06:14:01.815Z,97025.59
2023-02-28T06:16:31.170Z,97027.91
2023-02-28T06:19:04.283Z,97038.41
2023-02-28T06:21:32.295Z,97037.75
2023-02-28T06:24:00.349Z,97028.03
2023-02-28T06:26:27.698Z,97045.59
2023-02-28T06:28:55.215Z,97037.91
2023-02-28T06:31:23.084Z,97046.06
2023-02-28T06:33:50.349Z,97046.28
2023-02-28T06:36:18.202Z,97053.78
2023-02-28T06:38:46.426Z,97050.47
2023-02-28T06:41:13.287Z,97041.03
2023-02-28T06:43:42.968Z,97047.38
2023-02-28T06:46:14.654Z,97055.47
2023-02-28T06:48:44.575Z,97053.50
2023-02-28T06:51:18.642Z,97058.31
2023-02-28T06:53:45.579Z,97061.47
2023-02-28T06:56:17.119Z,97062.84
2023-02-28T06:58:51.690Z,97060.25
2023-02-28T07:01:18.668Z,97064.59
2023-02-28T07:03:46.098Z,97060.88
2023-02-28T07:06:13.185Z,97067.47
2023-02-28T07:08:41.948Z,97059.31
2023-02-28T07:11:08.771Z,97064.09
2023-02-28T07:13:35.595Z,97055.81
2023-02-28T07:16:08.693Z,97074.69
2023-02-28T07:18:36.720Z,97063.59
2023-02-28T07:21:06.615Z,97061.56
2023-02-28T07:23:33.712Z,97072.09
2023-02-28T07:26:00.605Z,97057.97
2023-02-28T07:28:28.300Z,97062.88
2023-02-28T07:30:55.097Z,97064.41
2023-02-28T07:33:21.946Z,97067.53
2023-02-28T07:35:48.893Z,97071.41
2023-02-28T07:38:16.378Z,97071.13
2023-02-28T07:40:43.234Z,97075.97
2023-02-28T07:43:10.202Z,97074.47
2023-02-28T07:45:41.222Z,97072.09
2023-02-28T07:48:10.895Z,97068.47
2023-02-28T07:50:37.886Z,97079.56
2023-02-28T07:53:05.438Z,97080.19
2023-02-28T07:55:32.242Z,97075.81
2023-02-28T07:57:59.468Z,97083.88
2023-02-28T08:00:26.453Z,97077.34
2023-02-28T08:02:53.257Z,97084.69
2023-02-28T08:05:22.185Z,97077.13
2023-02-28T08:07:50.872Z,97084.03
2023-02-28T08:10:18.038Z,97081.59
2023-02-28T08:12:44.935Z,97078.16
2023-02-28T08:15:11.944Z,97079.91
2023-02-28T08:17:38.963Z,97074.50
2023-02-28T08:20:06.634Z,97085.72
2023-02-28T08:22:33.482Z,97090.00
2023-02-28T08:25:00.293Z,97078.41
2023-02-28T08:27:27.091Z,97091.28
2023-02-28T08:29:53.885Z,97067.19
2023-02-28T08:32:29.262Z,97079.31
2023-02-28T08:34:57.065Z,97081.97
2023-02-28T08:37:24.256Z,97086.06
2023-02-28T08:39:51.075Z,97095.44
2023-02-28T08:42:17.910Z,97088.41
2023-02-28T08:44:44.771Z,97092.16
2023-02-28T08:47:11.636Z,97091.22
2023-02-28T08:49:38.712Z,97088.91
2023-02-28T08:52:05.579Z,97095.56
2023-02-28T08:54:34.205Z,97096.50
2023-02-28T08:57:01.445Z,97090.19
2023-02-28T08:59:28.242Z,97102.38
2023-02-28T09:01:55.033Z,97098.38
2023-02-28T09:04:23.410Z,97102.59
2023-02-28T09:06:51.830Z,97100.53
2023-02-28T09:09:18.687Z,97090.47
2023-02-28T09:11:45.512Z,97098.31
2023-02-28T09:14:12.388Z,97098.72
2023-02-28T09:16:39.290Z,97107.22
2023-02-28T09:19:06.138Z,97104.75
2023-02-28T09:21:33.005Z,97096.06
2023-02-28T09:23:59.817Z,97115.22
2023-02-28T09:26:34.858Z,97111.13
2023-02-28T09:29:09.556Z,97115.19
2023-02-28T09:31:36.634Z,97115.75
2023-02-28T09:34:05.098Z,97116.81
2023-02-28T09:36:43.678Z,97120.25
2023-02-28T09:39:11.325Z,97121.28
2023-02-28T09:41:48.306Z,97114.88
2023-02-28T09:44:30.008Z,97122.59
2023-02-28T09:47:02.763Z,97123.41
2023-02-28T09:49:43.853Z,97130.91
2023-02-28T09:52:18.917Z,97130.31
2023-02-28T09:54:46.172Z,97122.28
2023-02-28T09:57:41.343Z,97140.25
2023-02-28T10:00:39.981Z,97137.66
2023-02-28T10:03:58.881Z,97139.09
2023-02-28T10:06:37.777Z,97128.47
2023-02-28T10:09:17.596Z,97135.41
2023-02-28T10:14:19.764Z,97134.84
2023-02-28T10:17:03.811Z,97138.34
2023-02-28T10:19:55.365Z,97132.09
2023-02-28T10:22:38.117Z,97135.72
2023-02-28T10:25:25.214Z,97135.00
2023-02-28T10:28:01.877Z,97125.22
2023-02-28T10:30:29.107Z,97137.00
2023-02-28T10:32:56.321Z,97136.03
2023-02-28T10:35:26.625Z,97134.06
2023-02-28T10:37:59.006Z,97136.94
2023-02-28T10:40:25.717Z,97133.03
2023-02-28T10:43:27.605Z,97145.84
2023-02-28T10:46:01.102Z,97133.88
2023-02-28T10:48:37.721Z,97136.75
2023-02-28T10:51:08.100Z,97139.66
2023-02-28T10:54:00.007Z,97137.63
2023-02-28T10:56:29.027Z,97138.25
2023-02-28T10:59:27.959Z,97138.66
2023-02-28T11:01:55.090Z,97137.88
2023-02-28T11:04:41.230Z,97148.66
2023-02-28T11:07:23.025Z,97145.19
2023-02-28T11:09:56.891Z,97138.31
2023-02-28T11:12:43.447Z,97142.91
2023-02-28T11:15:32.278Z,97144.47
2023-02-28T11:18:09.924Z,97143.28
2023-02-28T11:20:37.032Z,97143.00
2023-02-28T11:23:05.690Z,97143.38
2023-02-28T11:25:39.261Z,97149.47
2023-02-28T11:28:26.129Z,97154.22
2023-02-28T11:31:20.429Z,97147.63
2023-02-28T11:33:56.754Z,97135.13
2023-02-28T11:36:28.333Z,97143.66
2023-02-28T11:39:11.245Z,97139.63
2023-02-28T11:42:45.490Z,97135.91
2023-02-28T11:45:32.476Z,97138.72
2023-02-28T11:48:19.910Z,97126.81
2023-02-28T11:51:20.526Z,97125.59
2023-02-28T11:54:24.531Z,97124.25
2023-02-28T11:56:59.828Z,97118.69
2023-02-28T11:59:46.117Z,97108.34
2023-02-28T12:02:26.307Z,97109.63
2023-02-28T12:05:17.058Z,97114.16
2023-02-28T12:08:20.975Z,97104.13
2023-02-28T12:11:20.571Z,97105.72
2023-02-28T12:14:05.109Z,97103.81
2023-02-28T12:16:56.914Z,97101.72
2023-02-28T12:19:45.666Z,97111.81
2023-02-28T12:23:18.113Z,97096.53
2023-02-28T12:26:04.195Z,97092.91
2023-02-28T12:28:39.113Z,97095.88
2023-02-28T12:31:23.115Z,97101.25
2023-02-28T12:34:07.036Z,97094.47
2023-02-28T12:36:37.177Z,97092.47
2023-02-28T12:39:17.382Z,97086.94
2023-02-28T12:41:55.376Z,97085.50
2023-02-28T12:44:49.802Z,97078.47
2023-02-28T12:47:19.715Z,97091.97
2023-02-28T12:50:05.735Z,97081.94
2023-02-28T12:53:04.300Z,97073.41
2023-02-28T12:55:49.146Z,97066.41
2023-02-28T12:58:38.687Z,97075.38
2023-02-28T13:01:40.492Z,97065.00
2023-02-28T13:04:43.543Z,97072.22
2023-02-28T13:07:54.657Z,97064.38
2023-02-28T13:10:21.695Z,97062.00
2023-02-28T13:12:54.031Z,97060.28
2023-02-28T13:15:28.922Z,97064.91
2023-02-28T13:18:00.637Z,97054.28
2023-02-28T13:20:35.724Z,97054.78
2023-02-28T13:23:03.238Z,97064.91
2023-02-28T13:25:39.009Z,97060.81
2023-02-28T13:28:15.312Z,97058.38
2023-02-28T13:30:58.186Z,97055.97
2023-02-28T13:33:34.800Z,97052.34
2023-02-28T13:36:15.361Z,97045.34
2023-02-28T13:39:07.850Z,97047.97
2023-02-28T13:41:35.324Z,97048.56
2023-02-28T13:44:11.123Z,97050.91
2023-02-28T13:46:58.596Z,97040.59
2023-02-28T13:49:34.738Z,97042.19
2023-02-28T13:52:07.421Z,97042.78
2023-02-28T13:54:56.911Z,97047.44
2023-02-28T13:58:23.429Z,97050.75
2023-02-28T14:01:17.132Z,97053.25
2023-02-28T14:04:07.553Z,97047.06
2023-02-28T14:06:36.872Z,97047.03
2023-02-28T14:09:12.744Z,97047.66
2023-02-28T14:11:42.070Z,97061.69
2023-02-28T14:14:35.893Z,97051.25
2023-02-28T14:17:15.541Z,97057.22
2023-02-28T14:19:48.932Z,97053.47
2023-02-28T14:22:36.827Z,97048.91
2023-02-28T14:25:19.527Z,97045.19
2023-02-28T14:28:17.230Z,97053.78
2023-02-28T14:30:57.857Z,97041.66
2023-02-28T14:33:30.076Z,97041.94
2023-02-28T14:36:40.201Z,97044.84
2023-02-28T14:39:20.940Z,97049.28
2023-02-28T14:41:48.669Z,97050.63
2023-02-28T14:44:25.455Z,97056.88
2023-02-28T14:47:06.469Z,97051.97
2023-02-28T14:49:46.580Z,97047.19
2023-02-28T14:52:22.011Z,97051.41
2023-02-28T14:55:01.324Z,97043.81
2023-02-28T14:57:40.409Z,97046.78
2023-02-28T15:00:25.786Z,97043.09
2023-02-28T15:02:54.439Z,97043.31
2023-02-28T15:05:31.636Z,97044.22
2023-02-28T15:08:15.423Z,97044.31
2023-02-28T15:10:46.452Z,97050.09
2023-02-28T15:13:16.159Z,97054.13
2023-02-28T15:16:01.311Z,97037.88
2023-02-28T15:18:50.387Z,97042.84
2023-02-28T15:21:33.750Z,97048.66
2023-02-28T15:24:14.658Z,97048.19
2023-02-28T15:26:47.667Z,97051.53
2023-02-28T15:29:18.484Z,97053.69
2023-02-28T15:31:57.412Z,97057.16
2023-02-28T15:34:44.064Z,97056.13
2023-02-28T15:37:36.814Z,97055.19
2023-02-28T15:40:27.751Z,97062.47
2023-02-28T15:43:24.904Z,97057.56
2023-02-28T15:45:57.550Z,97072.75
2023-02-28T15:48:30.167Z,97068.25
2023-02-28T15:51:09.421Z,97067.97
2023-02-28T15:54:11.919Z,97076.66
2023-02-28T15:56:48.540Z,97069.66
2023-02-28T15:59:23.251Z,97073.50
2023-02-28T16:02:43.432Z,97074.75
2023-02-28T16:05:10.218Z,97069.84
2023-02-28T16:07:43.001Z,97076.03
2023-02-28T16:10:14.985Z,97072.84
2023-02-28T16:12:42.741Z,97081.53
2023-02-28T16:15:29.521Z,97079.22
2023-02-28T16:17:58.212Z,97076.97
2023-02-28T16:20:27.870Z,97075.78
2023-02-28T16:22:55.424Z,97081.66
2023-02-28T16:25:35.612Z,97080.41
2023-02-28T16:28:03.468Z,97089.72
2023-02-28T16:30:34.046Z,97088.25
2023-02-28T16:33:01.298Z,97081.69
2023-02-28T16:35:28.292Z,97083.00
2023-02-28T16:37:55.463Z,97084.28
2023-02-28T16:40:26.571Z,97089.44
2023-02-28T16:42:59.495Z,97096.78
2023-02-28T16:45:29.546Z,97097.59
2023-02-28T16:47:57.148Z,97091.97
2023-02-28T16:50:27.767Z,97094.78
2023-02-28T16:52:56.168Z,97096.19
2023-02-28T16:55:25.286Z,97095.19
2023-02-28T16:57:58.855Z,97092.13
2023-02-28T17:00:28.540Z,97105.09
2023-02-28T17:02:56.764Z,97103.22
2023-02-28T17:05:24.875Z,97108.50
2023-02-28T17:07:51.771Z,97101.16
2023-02-28T17:10:18.479Z,97107.47
2023-02-28T17:12:45.294Z,97113.03
2023-02-28T17:15:15.429Z,97117.50
2023-02-28T17:17:43.835Z,97121.53
2023-02-28T17:20:28.692Z,97122.28
2023-02-28T17:22:57.011Z,97122.50
2023-02-28T17:25:25.385Z,97124.38
2023-02-28T17:27:52.371Z,97126.81
2023-02-28T17:30:30.122Z,97126.47
2023-02-28T17:32:57.614Z,97122.19
2023-02-28T17:35:25.309Z,97133.22
2023-02-28T17:37:52.266Z,97132.94
2023-02-28T17:40:23.180Z,97137.63
2023-02-28T17:42:50.386Z,97131.63
2023-02-28T17:45:17.401Z,97136.78
2023-02-28T17:47:49.182Z,97144.63
2023-02-28T17:50:20.170Z,97144.63
2023-02-28T17:52:47.284Z,97139.72
2023-02-28T17:55:14.671Z,97143.41
2023-02-28T17:57:42.859Z,97137.88
2023-02-28T18:00:14.481Z,97140.88
2023-02-28T18:02:41.477Z,97139.13
2023-02-28T18:05:09.079Z,97140.41
2023-02-28T18:07:39.256Z,97150.53
2023-02-28T18:10:09.300Z,97135.94
2023-02-28T18:12:36.170Z,97141.97
2023-02-28T18:15:03.174Z,97146.19
2023-02-28T18:17:29.976Z,97135.13
2023-02-28T18:19:56.902Z,97143.06
2023-02-28T18:22:23.894Z,97138.94
2023-02-28T18:24:50.816Z,97135.09
2023-02-28T18:27:17.728Z,97147.59
2023-02-28T18:29:44.686Z,97137.91
2023-02-28T18:32:11.636Z,97135.34
2023-02-28T18:34:38.607Z,97144.13
2023-02-28T18:37:05.472Z,97142.84
2023-02-28T18:39:32.465Z,97139.50
2023-02-28T18:41:59.349Z,97138.09
2023-02-28T18:44:26.231Z,97136.31
2023-02-28T18:46:53.413Z,97139.50
2023-02-28T18:49:20.571Z,97141.25
2023-02-28T18:51:47.778Z,97142.44
2023-02-28T18:54:16.821Z,97134.41
2023-02-28T18:56:44.010Z,97137.47
2023-02-28T18:59:11.395Z,97127.31
2023-02-28T19:01:39.121Z,97135.25
2023-02-28T19:04:06.535Z,97128.22
2023-02-28T19:06:34.207Z,97138.66
2023-02-28T19:09:03.680Z,97130.81
2023-02-28T19:11:31.386Z,97136.28
2023-02-28T19:13:58.503Z,97129.16
2023-02-28T19:16:27.801Z,97134.78
2023-02-28T19:18:55.611Z,97133.31
2023-02-28T19:21:24.720Z,97127.63
2023-02-28T19:23:51.692Z,97124.06
2023-02-28T19:26:23.123Z,97125.31
2023-02-28T19:28:50.681Z,97126.72
2023-02-28T19:31:22.474Z,97128.25
2023-02-28T19:33:49.665Z,97130.47
2023-02-28T19:36:16.763Z,97132.81
2023-02-28T19:38:44.782Z,97126.97
2023-02-28T19:41:14.664Z,97141.22
2023-02-28T19:43:42.056Z,97136.38
2023-02-28T19:46:09.731Z,97133.69
2023-02-28T19:48:37.060Z,97136.47
2023-02-28T19:51:09.112Z,97133.81
2023-02-28T19:53:38.755Z,97140.63
2023-02-28T19:56:07.267Z,97133.47
2023-02-28T19:58:34.731Z,97138.41
2023-02-28T20:01:14.578Z,97133.19
2023-02-28T20:03:42.964Z,97127.97
2023-02-28T20:06:13.859Z,97140.31
2023-02-28T20:08:41.198Z,97138.63
2023-02-28T20:11:16.354Z,97134.00
2023-02-28T20:13:44.586Z,97140.31
2023-02-28T20:16:12.573Z,97132.41
2023-02-28T20:18:41.122Z,97132.72
2023-02-28T20:21:09.953Z,97130.47
2023-02-28T20:23:41.786Z,97136.06
2023-02-28T20:26:09.957Z,97132.13
2023-02-28T20:28:38.400Z,97124.00
2023-02-28T20:31:18.742Z,97129.75
2023-02-28T20:33:47.022Z,97131.19
2023-02-28T20:36:16.083Z,97136.50
2023-02-28T20:38:43.485Z,97143.19
2023-02-28T20:41:10.372Z,97144.81
2023-02-28T20:43:37.272Z,97144.25
2023-02-28T20:46:04.466Z,97147.41
2023-02-28T20:48:33.735Z,97139.63
2023-02-28T20:51:00.839Z,97140.88
2023-02-28T20:53:29.284Z,97137.47
2023-02-28T20:55:58.151Z,97140.47
2023-02-28T20:58:28.292Z,97138.00
2023-02-28T21:01:15.909Z,97136.88
2023-02-28T21:03:45.282Z,97132.06
2023-02-28T21:06:13.089Z,97134.97
2023-02-28T21:08:40.706Z,97135.25
2023-02-28T21:11:16.843Z,97128.31
2023-02-28T21:13:45.620Z,97127.91
2023-02-28T21:16:17.517Z,97131.19
2023-02-28T21:18:44.889Z,97126.81
2023-02-28T21:21:18.208Z,97127.31
2023-02-28T21:23:46.657Z,97127.41
2023-02-28T21:26:19.896Z,97132.53
2023-02-28T21:28:59.110Z,97126.66
2023-02-28T21:31:28.906Z,97123.69
2023-02-28T21:33:58.203Z,97128.38
2023-02-28T21:36:33.074Z,97120.19
2023-02-28T21:39:04.955Z,97125.41
2023-02-28T21:41:31.779Z,97130.44
2023-02-28T21:43:58.592Z,97126.84
2023-02-28T21:46:28.896Z,97122.09
2023-02-28T21:48:56.853Z,97114.69
2023-02-28T21:51:31.119Z,97116.31
2023-02-28T21:54:01.948Z,97111.84
2023-02-28T21:56:32.803Z,97114.50
2023-02-28T21:59:00.703Z,97106.78
2023-02-28T22:01:34.882Z,97102.41
2023-02-28T22:04:03.910Z,97109.75
2023-02-28T22:06:39.347Z,97111.97
2023-02-28T22:09:08.845Z,97109.75
2023-02-28T22:11:38.003Z,97109.47
2023-02-28T22:14:06.566Z,97112.69
2023-02-28T22:16:49.551Z,97119.00
2023-02-28T22:19:18.323Z,97115.66
2023-02-28T22:21:45.716Z,97125.72
2023-02-28T22:24:12.765Z,97124.28
2023-02-28T22:26:39.583Z,97124.06
2023-02-28T22:29:06.697Z,97120.03
2023-02-28T22:31:35.472Z,97116.16
2023-02-28T22:34:07.893Z,97120.53
2023-02-28T22:36:35.157Z,97114.34
2023-02-28T22:39:02.249Z,97114.50
2023-02-28T22:41:29.684Z,97111.97
2023-02-28T22:44:00.166Z,97123.25
2023-02-28T22:46:30.034Z,97121.50
2023-02-28T22:48:59.797Z,97118.47
2023-02-28T22:51:28.238Z,97117.47
2023-02-28T22:53:56.678Z,97111.88
2023-02-28T22:56:26.044Z,97110.66
2023-02-28T22:58:56.115Z,97113.03
2023-02-28T23:01:26.218Z,97111.09
2023-02-28T23:03:53.578Z,97110.72
2023-02-28T23:06:29.956Z,97111.44
2023-02-28T23:09:01.230Z,97114.50
2023-02-28T23:11:33.345Z,97123.88
2023-02-28T23:14:00.758Z,97115.66
2023-02-28T23:16:31.837Z,97123.28
2023-02-28T23:19:02.547Z,97109.59
2023-02-28T23:21:30.207Z,97111.22
2023-02-28T23:23:57.370Z,97102.34
2023-02-28T23:26:24.393Z,97117.69
2023-02-28T23:28:51.232Z,97117.59
2023-02-28T23:31:18.113Z,97107.34
2023-02-28T23:33:44.999Z,97114.50
2023-02-28T23:36:14.908Z,97109.59
2023-02-28T23:38:45.716Z,97110.47
2023-02-28T23:41:14.029Z,97098.69
2023-02-28T23:43:41.225Z,97105.56
2023-02-28T23:46:10.058Z,97100.03
2023-02-28T23:48:37.312Z,97101.91
2023-02-28T23:51:08.465Z,97100.78
2023-02-28T23:53:41.247Z,97101.56
2023-02-28T23:56:11.760Z,97095.00
2023-02-28T23:58:38.558Z,97088.72
